Shady Shores, Texas
Current Conditions -  °F | °C
As of 3:11 AM on Saturday 22 Nov 2014 (Local Time) from KDTO Reporting Station
Thunderstorm Thunderstorm  
Wind Chill: 61°   Ceiling: 700
Heat Index: 61°   Visibility: 6mi
Dew Point: 59°   Wind: 17mph
Humidity: 93%   Direction: 150°SSE
Pressure: 30.04"   Gusts: 28mph
Location:  33.1922°N, 97.124°W
Report Text: KDTO 220911Z AUTO 15015G24KT 6SM VCTS -RA BR BKN007 OVC085 16/15 A3004 RMK AO2 WSHFT 0851 LTG DSNT SE AND W AND NW P0000 T01610150
Loading
Personal Weather Stations






























Interactive Weather Map New forecast layout! Learn more

10-Day Weather Forecast

Advertisements
Track Severe Weather on mobile